Airfield :
LOGIN :

Register | Disclaimer

   EN    FR    IT 

 










Legend :    VFR   Marginal VFR   IFR   Intensive IFR   Very Intensive IFR
Visi :
Ceiling :
>= 8 km
>= 3000ft
5 to 8 km
1000 to 3000 ft
1500m to 5 km
500 to 1000 ft
800 to 1500m
200 to 500 ft
< 800m
< 200 ft
Symbols :   Thunderstorms  Fog  Heavy snow  Heavy precipitations  Wind > 20 kt
SIGMETs :     Misc.  Thunderstorms  Icing  Turbulence  Mountain Waves  Volcanic Ashes







- Airport Elevation : 433 ft
- IATA code : CCF
- Download approach charts


LFMK - Carcassonne

CURRENT METAR :
  • 212230Z AUTO 08015KT 9999 OVC005 19/18 Q1012

EXPIRED METARs :
  • 212200Z AUTO 08018KT 9000 OVC005 19/18 Q1012
  • 212130Z AUTO 08016KT 8000 OVC006 19/18 Q1012
  • 212100Z AUTO 08015KT 9000 OVC005 19/18 Q1012
  • 212030Z AUTO 08016KT 9999 BKN005 OVC010 19/18 Q1012

TAF TAF LFMK
Valid from the 21 at 15:00 until the 22 at 15:00 UTC


211400Z 2115/2215 08015KT 9999 OVC020
TEMPO 2115/2215 RA OVC007
PROB40
TEMPO 2212/2215 VRB20G30KT SHRA OVC007TCU
No reported NOTAMs for that airfield.



MET'MAP, your aeronautical weather chart ! - Copyright ORBIFLY December 2007 - Disclaimer

ORBIFLY MET'MAP TEAM :

Programming & Development : Alexandra Zaïnal
Concept & Development : Baudouin d'Aumeries
Co-Development & Prog : Marc-Olivier Méhu
Technical & hardware support : Manuel Goepfert

Contact : metmap@orbifly.com




SOURCES & CREDITS :

   NOAA